Time;durP1;ratioP1;P1;durP2;ratioP2;P2;SDS_P1;SDS_P2;PMS_P1;PMS_P2;Temp;Humidity;BMP_temperature;BMP_pressure;BME280_temperature;BME280_humidity;BME280_pressure;Samples;Min_cycle;Max_cycle;Signal;HPM_P1;HPM_P2
2022/08/12 00:43:27;;;;;;;9.35;5.75;;;;;;;;;;5050298;28;20049;-76
2022/08/12 00:48:39;;;;;;;9.98;6.35;;;;;;;;;;5050119;28;20033;-76
2022/08/12 00:51:06;;;;;;;8.57;5.93;;;;;;;;;;5050714;28;20043;-76
2022/08/12 00:53:32;;;;;;;10.73;6.32;;;;;;;;;;5050196;28;20118;-76
2022/08/12 00:56:00;;;;;;;16.40;6.22;;;;;;;;;;5051077;28;20063;-76
2022/08/12 00:58:30;;;;;;;13.15;6.10;;;;;;;;;;5050115;28;20486;-76
2022/08/12 01:01:01;;;;;;;9.73;6.43;;;;;;;;;;5037730;28;20044;-76
2022/08/12 01:11:27;;;;;;;12.13;6.82;;;;;;;;;;5054123;28;20539;-76
2022/08/12 01:11:52;;;;;;;9.18;6.65;;;;;;;;;;5053582;28;20060;-76
2022/08/12 01:14:19;;;;;;;10.68;6.47;;;;;;;;;;5054100;28;20503;-76
2022/08/12 01:16:49;;;;;;;9.23;7.10;;;;;;;;;;5037342;28;20047;-76
2022/08/12 01:19:17;;;;;;;13.02;7.18;;;;;;;;;;5056938;28;20124;-76
2022/08/12 01:21:45;;;;;;;9.38;6.53;;;;;;;;;;5053224;28;20048;-76
2022/08/12 01:24:20;;;;;;;10.18;6.78;;;;;;;;;;5053767;28;20041;-76
2022/08/12 01:26:46;;;;;;;8.95;6.57;;;;;;;;;;5053199;28;20056;-76
2022/08/12 01:29:15;;;;;;;10.93;6.18;;;;;;;;;;5053612;28;20044;-76
2022/08/12 01:31:42;;;;;;;16.25;7.05;;;;;;;;;;5052745;28;20075;-76
2022/08/12 01:34:11;;;;;;;11.13;7.40;;;;;;;;;;5053540;28;20047;-76
2022/08/12 01:36:42;;;;;;;9.43;6.95;;;;;;;;;;5053352;28;20037;-76
2022/08/12 01:39:09;;;;;;;9.98;6.95;;;;;;;;;;5053797;28;20045;-76
2022/08/12 01:41:38;;;;;;;14.15;7.25;;;;;;;;;;5052498;28;20086;-76
2022/08/12 01:44:06;;;;;;;12.30;7.85;;;;;;;;;;5053076;28;20059;-76
2022/08/12 01:46:41;;;;;;;9.45;7.55;;;;;;;;;;5036562;28;20048;-76
2022/08/12 01:49:17;;;;;;;12.00;7.63;;;;;;;;;;5053516;28;20094;-76
2022/08/12 01:51:45;;;;;;;10.32;7.68;;;;;;;;;;5052903;28;20037;-76
2022/08/12 01:54:17;;;;;;;9.43;7.57;;;;;;;;;;5036826;28;20045;-76
2022/08/12 01:57:05;;;;;;;13.35;8.10;;;;;;;;;;5039014;28;20519;-76
2022/08/12 01:59:55;;;;;;;12.23;8.02;;;;;;;;;;5053308;28;20510;-76
2022/08/12 02:02:27;;;;;;;12.20;8.18;;;;;;;;;;5052267;28;20699;-76
2022/08/12 02:11:17;;;;;;;9.13;7.70;;;;;;;;;;5036698;28;20052;-76
2022/08/12 02:13:54;;;;;;;13.90;8.65;;;;;;;;;;5045844;28;20037;-76
2022/08/12 02:16:23;;;;;;;11.98;8.25;;;;;;;;;;5041078;28;20037;-76
2022/08/12 02:18:52;;;;;;;14.02;9.35;;;;;;;;;;5051622;28;20036;-76
2022/08/12 02:21:37;;;;;;;13.45;8.63;;;;;;;;;;5052882;28;20052;-76
2022/08/12 02:24:04;;;;;;;16.08;8.30;;;;;;;;;;5035408;28;20041;-76
2022/08/12 02:26:32;;;;;;;9.07;6.78;;;;;;;;;;5036353;28;20041;-76
2022/08/12 02:28:58;;;;;;;15.70;8.80;;;;;;;;;;5035309;28;20041;-76
2022/08/12 02:31:26;;;;;;;12.38;9.27;;;;;;;;;;5036149;28;20051;-76
2022/08/12 02:33:52;;;;;;;15.57;8.60;;;;;;;;;;5051516;28;20037;-76
2022/08/12 02:36:18;;;;;;;10.73;8.70;;;;;;;;;;5052488;28;20044;-76
2022/08/12 02:38:44;;;;;;;12.88;9.88;;;;;;;;;;5051952;28;20053;-76
2022/08/12 02:41:11;;;;;;;13.43;9.40;;;;;;;;;;5052332;28;20040;-76
2022/08/12 02:43:50;;;;;;;12.38;10.05;;;;;;;;;;5035138;28;20485;-76
2022/08/12 02:46:28;;;;;;;15.40;10.20;;;;;;;;;;5039319;28;20144;-76
2022/08/12 02:49:13;;;;;;;12.32;9.43;;;;;;;;;;5051947;28;20098;-76
2022/08/12 02:51:41;;;;;;;15.55;8.65;;;;;;;;;;5051728;28;20041;-76
2022/08/12 02:54:07;;;;;;;11.63;8.43;;;;;;;;;;5051505;28;20173;-76
2022/08/12 02:56:39;;;;;;;13.35;10.43;;;;;;;;;;5052046;28;20045;-76
2022/08/12 02:59:06;;;;;;;12.15;9.68;;;;;;;;;;5052043;28;20071;-76
2022/08/12 03:01:33;;;;;;;12.75;9.68;;;;;;;;;;5051831;28;20036;-75
2022/08/12 03:04:05;;;;;;;12.07;9.93;;;;;;;;;;5034921;28;20036;-76
2022/08/12 03:06:37;;;;;;;14.52;10.25;;;;;;;;;;5051681;28;20052;-76
2022/08/12 03:09:04;;;;;;;12.80;9.30;;;;;;;;;;5052539;28;20515;-76
2022/08/12 03:11:39;;;;;;;12.63;9.00;;;;;;;;;;5051707;28;20122;-75
2022/08/12 03:14:10;;;;;;;12.68;10.13;;;;;;;;;;5052926;28;20048;-75
2022/08/12 03:16:38;;;;;;;11.32;8.65;;;;;;;;;;5034416;28;20041;-75
2022/08/12 03:19:05;;;;;;;13.27;9.93;;;;;;;;;;5051833;28;20036;-75
2022/08/12 03:21:33;;;;;;;12.38;8.95;;;;;;;;;;5051861;28;20045;-75
2022/08/12 03:24:00;;;;;;;13.60;9.93;;;;;;;;;;5050401;28;20048;-75
2022/08/12 03:26:27;;;;;;;13.40;9.48;;;;;;;;;;5051045;28;20482;-75
2022/08/12 03:28:56;;;;;;;14.95;9.65;;;;;;;;;;5052141;28;20044;-75
2022/08/12 03:31:24;;;;;;;14.25;9.63;;;;;;;;;;5035200;28;20052;-76
2022/08/12 03:33:51;;;;;;;11.65;7.13;;;;;;;;;;5051137;28;20382;-75
2022/08/12 03:36:19;;;;;;;14.32;10.05;;;;;;;;;;5050997;28;20040;-75
2022/08/12 03:39:17;;;;;;;15.35;10.85;;;;;;;;;;5051088;28;20469;-76
2022/08/12 03:41:39;;;;;;;12.43;9.52;;;;;;;;;;5051689;28;20049;-76
2022/08/12 04:01:00;;;;;;;14.75;11.07;;;;;;;;;;5045123;28;20075;-76
2022/08/12 04:06:11;;;;;;;16.58;11.57;;;;;;;;;;5049537;28;20041;-76
2022/08/12 04:08:38;;;;;;;13.73;10.98;;;;;;;;;;5040163;28;20045;-76
2022/08/12 04:13:50;;;;;;;12.52;10.18;;;;;;;;;;5048268;28;20091;-76
2022/08/12 04:16:16;;;;;;;14.98;10.95;;;;;;;;;;5032847;28;20037;-75
2022/08/12 04:18:43;;;;;;;12.60;8.88;;;;;;;;;;5031795;28;20045;-75
2022/08/12 04:21:09;;;;;;;15.25;9.52;;;;;;;;;;5050423;28;20126;-76
2022/08/12 04:23:37;;;;;;;13.82;10.30;;;;;;;;;;5050703;28;20041;-75
2022/08/12 04:26:03;;;;;;;11.13;9.77;;;;;;;;;;5050645;28;20459;-76
2022/08/12 04:28:29;;;;;;;17.48;10.50;;;;;;;;;;5033725;28;20068;-76
2022/08/12 04:30:56;;;;;;;13.95;10.13;;;;;;;;;;5049831;28;20481;-76
2022/08/12 04:33:22;;;;;;;12.82;9.55;;;;;;;;;;5051236;28;20486;-76
2022/08/12 04:35:48;;;;;;;11.27;8.88;;;;;;;;;;5055221;28;20130;-76
2022/08/12 04:38:16;;;;;;;13.57;8.05;;;;;;;;;;5021907;28;20049;-76
2022/08/12 04:40:45;;;;;;;13.43;10.52;;;;;;;;;;5054169;28;20378;-76
2022/08/12 04:43:11;;;;;;;13.43;9.48;;;;;;;;;;5054522;28;20501;-76
2022/08/12 04:45:38;;;;;;;11.60;8.23;;;;;;;;;;5053972;28;20057;-76
2022/08/12 04:48:04;;;;;;;20.52;9.23;;;;;;;;;;5053962;28;20055;-76
2022/08/12 04:50:31;;;;;;;12.38;8.40;;;;;;;;;;5054427;28;20409;-76
2022/08/12 04:52:59;;;;;;;12.05;9.07;;;;;;;;;;5040008;28;20048;-76
2022/08/12 04:55:25;;;;;;;10.57;8.35;;;;;;;;;;5054172;28;20076;-76
2022/08/12 04:57:52;;;;;;;10.90;8.02;;;;;;;;;;5037495;28;20049;-76
2022/08/12 05:00:18;;;;;;;10.48;7.75;;;;;;;;;;5053923;28;20505;-76
2022/08/12 05:02:44;;;;;;;8.95;6.55;;;;;;;;;;5037272;28;20041;-76
2022/08/12 05:05:21;;;;;;;12.15;7.50;;;;;;;;;;5053941;28;20052;-76
2022/08/12 05:07:47;;;;;;;11.68;7.60;;;;;;;;;;5037748;28;20500;-76
2022/08/12 05:10:14;;;;;;;11.27;7.28;;;;;;;;;;5053831;28;20124;-76
2022/08/12 05:12:46;;;;;;;10.27;7.45;;;;;;;;;;5052743;28;20041;-77
2022/08/12 05:15:12;;;;;;;8.07;7.13;;;;;;;;;;5049572;28;20037;-77
2022/08/12 05:17:40;;;;;;;10.48;7.10;;;;;;;;;;5050177;28;20032;-77
2022/08/12 05:20:08;;;;;;;12.40;6.97;;;;;;;;;;5053467;28;20051;-77
2022/08/12 05:22:35;;;;;;;10.00;6.47;;;;;;;;;;5053770;28;20480;-77
2022/08/12 05:25:01;;;;;;;10.60;6.85;;;;;;;;;;5053174;28;20167;-77
2022/08/12 05:27:27;;;;;;;7.90;5.53;;;;;;;;;;5053861;28;20045;-77
2022/08/12 05:29:53;;;;;;;9.43;5.80;;;;;;;;;;5053191;28;20033;-77
2022/08/12 05:32:24;;;;;;;10.93;6.13;;;;;;;;;;5053005;28;20041;-77
2022/08/12 05:34:52;;;;;;;8.68;6.00;;;;;;;;;;5053642;28;20056;-78
2022/08/12 05:37:20;;;;;;;7.25;5.25;;;;;;;;;;5055052;28;20048;-77
2022/08/12 05:39:46;;;;;;;10.25;5.63;;;;;;;;;;5053614;28;20053;-77
2022/08/12 05:42:13;;;;;;;6.85;4.75;;;;;;;;;;5051973;28;20045;-77
2022/08/12 05:44:39;;;;;;;9.05;5.00;;;;;;;;;;5052819;28;20501;-77
2022/08/12 05:47:05;;;;;;;6.75;4.32;;;;;;;;;;5052031;28;20063;-79
2022/08/12 05:49:33;;;;;;;8.40;4.95;;;;;;;;;;5052746;28;20077;-79
2022/08/12 05:51:59;;;;;;;8.77;4.10;;;;;;;;;;5041956;28;20045;-80
2022/08/12 05:54:26;;;;;;;7.00;4.60;;;;;;;;;;5039036;28;20041;-79
2022/08/12 05:56:52;;;;;;;6.82;4.60;;;;;;;;;;5036274;28;20056;-79
2022/08/12 05:59:20;;;;;;;12.38;4.50;;;;;;;;;;5036501;28;20481;-78
2022/08/12 06:01:46;;;;;;;8.40;4.20;;;;;;;;;;5042593;28;20068;-79
2022/08/12 06:04:13;;;;;;;6.35;4.30;;;;;;;;;;5039536;28;20037;-78
2022/08/12 06:06:40;;;;;;;7.20;4.60;;;;;;;;;;5037656;28;20045;-79
2022/08/12 06:09:10;;;;;;;6.53;3.75;;;;;;;;;;5039402;28;20440;-79
2022/08/12 06:11:40;;;;;;;5.93;3.85;;;;;;;;;;5042191;28;20040;-79
2022/08/12 06:14:07;;;;;;;7.65;3.67;;;;;;;;;;5050781;28;20520;-78
2022/08/12 06:16:34;;;;;;;7.47;3.72;;;;;;;;;;5048404;28;20045;-79
2022/08/12 06:19:00;;;;;;;8.23;3.78;;;;;;;;;;5018585;28;20044;-79
2022/08/12 06:21:29;;;;;;;7.63;3.60;;;;;;;;;;5044641;28;20087;-79
2022/08/12 06:23:56;;;;;;;6.00;3.22;;;;;;;;;;5041278;28;20041;-79
2022/08/12 06:26:22;;;;;;;7.03;3.40;;;;;;;;;;5044327;28;20043;-79
2022/08/12 06:28:49;;;;;;;7.45;3.97;;;;;;;;;;5047310;28;20041;-78
2022/08/12 06:31:16;;;;;;;5.72;3.08;;;;;;;;;;5043357;28;20033;-79
2022/08/12 06:33:43;;;;;;;8.30;3.08;;;;;;;;;;5044463;28;20040;-79
2022/08/12 06:36:09;;;;;;;6.05;3.08;;;;;;;;;;5041082;28;20049;-78
2022/08/12 06:38:35;;;;;;;6.65;2.90;;;;;;;;;;5052438;28;20486;-79
2022/08/12 06:43:50;;;;;;;4.28;2.70;;;;;;;;;;5062378;28;20443;-78
2022/08/12 06:46:16;;;;;;;8.18;2.65;;;;;;;;;;5046937;28;20124;-80
2022/08/12 06:48:42;;;;;;;6.68;2.70;;;;;;;;;;5046527;28;20060;-80
2022/08/12 06:51:09;;;;;;;4.13;2.47;;;;;;;;;;5029359;28;20119;-79
2022/08/12 06:53:35;;;;;;;3.80;2.63;;;;;;;;;;5050880;28;20033;-81
2022/08/12 06:56:02;;;;;;;5.28;2.55;;;;;;;;;;5050505;28;20116;-82
2022/08/12 06:58:29;;;;;;;6.47;2.40;;;;;;;;;;5051171;28;20064;-82
2022/08/12 07:00:56;;;;;;;5.55;2.53;;;;;;;;;;5049542;28;20489;-81
2022/08/12 07:03:29;;;;;;;5.47;2.30;;;;;;;;;;5043713;28;20080;-82
2022/08/12 07:06:22;;;;;;;5.72;2.55;;;;;;;;;;5042627;28;20068;-80
2022/08/12 07:08:49;;;;;;;5.53;2.50;;;;;;;;;;5043434;28;20079;-80
2022/08/12 07:11:15;;;;;;;4.55;2.55;;;;;;;;;;5058892;28;20048;-80
2022/08/12 07:13:42;;;;;;;4.00;2.42;;;;;;;;;;5041718;28;20486;-83
2022/08/12 07:16:13;;;;;;;4.90;2.40;;;;;;;;;;5049828;28;20047;-78
2022/08/12 07:18:40;;;;;;;6.65;2.85;;;;;;;;;;5060555;28;20520;-78
2022/08/12 07:21:06;;;;;;;4.95;2.13;;;;;;;;;;5051050;28;20044;-79
2022/08/12 07:23:38;;;;;;;4.68;2.30;;;;;;;;;;5050724;28;20036;-84
2022/08/12 07:26:07;;;;;;;3.97;2.25;;;;;;;;;;5051039;28;20041;-85
2022/08/12 07:28:35;;;;;;;4.03;2.20;;;;;;;;;;5044421;28;20044;-84
2022/08/12 07:31:11;;;;;;;5.70;2.40;;;;;;;;;;5050998;28;20069;-84
2022/08/12 07:33:38;;;;;;;3.88;2.10;;;;;;;;;;5049572;28;20102;-83
2022/08/12 07:36:05;;;;;;;3.15;1.90;;;;;;;;;;5040105;28;20694;-87
2022/08/12 07:38:41;;;;;;;6.63;2.30;;;;;;;;;;5047800;28;20051;-82
2022/08/12 07:41:07;;;;;;;6.28;2.20;;;;;;;;;;5034490;28;20041;-80
2022/08/12 07:43:40;;;;;;;8.00;2.10;;;;;;;;;;5038096;28;20037;-80
2022/08/12 07:46:08;;;;;;;3.67;2.20;;;;;;;;;;5035439;28;20486;-80
2022/08/12 07:48:36;;;;;;;6.00;2.30;;;;;;;;;;5038723;28;20040;-80
2022/08/12 07:51:02;;;;;;;3.53;1.90;;;;;;;;;;5050037;28;20087;-81
2022/08/12 07:53:28;;;;;;;6.35;2.10;;;;;;;;;;5042481;28;20036;-80
2022/08/12 07:55:54;;;;;;;5.65;1.90;;;;;;;;;;5043394;28;20044;-81
2022/08/12 07:58:22;;;;;;;3.85;1.90;;;;;;;;;;5038511;28;20068;-80
2022/08/12 08:00:48;;;;;;;5.22;1.80;;;;;;;;;;5046665;28;20474;-80
2022/08/12 08:03:15;;;;;;;5.32;1.90;;;;;;;;;;5037787;28;20380;-80
2022/08/12 08:05:48;;;;;;;3.95;1.90;;;;;;;;;;5035394;28;20402;-81
2022/08/12 08:08:19;;;;;;;5.80;2.00;;;;;;;;;;5049648;28;20061;-82
2022/08/12 08:10:45;;;;;;;6.78;1.92;;;;;;;;;;5045791;28;20043;-80
2022/08/12 08:13:12;;;;;;;5.10;2.22;;;;;;;;;;5024461;28;20119;-81
2022/08/12 08:15:38;;;;;;;5.63;1.75;;;;;;;;;;5041012;28;20048;-79
2022/08/12 08:18:07;;;;;;;5.75;1.95;;;;;;;;;;5046615;28;20080;-80
2022/08/12 08:20:44;;;;;;;3.72;1.80;;;;;;;;;;5050339;28;20441;-81
2022/08/12 08:23:19;;;;;;;6.00;1.80;;;;;;;;;;5050725;28;20518;-81
2022/08/12 08:25:45;;;;;;;4.35;1.85;;;;;;;;;;5028495;28;20045;-81
2022/08/12 08:28:12;;;;;;;6.15;1.80;;;;;;;;;;5049056;28;20040;-81
2022/08/12 08:30:41;;;;;;;3.97;1.77;;;;;;;;;;5049982;28;20033;-81
2022/08/12 08:33:10;;;;;;;4.40;1.70;;;;;;;;;;5050021;28;20055;-81
2022/08/12 08:35:38;;;;;;;4.28;1.90;;;;;;;;;;5047754;28;20037;-80
2022/08/12 08:38:22;;;;;;;5.78;2.10;;;;;;;;;;5033734;28;20051;-81
2022/08/12 08:43:32;;;;;;;;;;;;;;;;;;5029492;28;20560;-80
2022/08/12 08:46:04;;;;;;;3.67;2.05;;;;;;;;;;5050327;28;20439;-81
2022/08/12 08:48:33;;;;;;;5.18;2.00;;;;;;;;;;5049634;28;20107;-81
2022/08/12 08:51:00;;;;;;;3.80;2.10;;;;;;;;;;5049598;28;20036;-81
2022/08/12 08:53:26;;;;;;;7.25;2.25;;;;;;;;;;5049700;28;20076;-81
2022/08/12 08:55:53;;;;;;;6.07;1.80;;;;;;;;;;5050006;28;20557;-81
2022/08/12 08:58:22;;;;;;;2.78;2.00;;;;;;;;;;5033108;28;20041;-81
2022/08/12 09:00:49;;;;;;;4.43;1.77;;;;;;;;;;5050135;28;20489;-80
2022/08/12 09:03:15;;;;;;;4.57;1.90;;;;;;;;;;5049142;28;20102;-80
2022/08/12 09:05:41;;;;;;;3.13;1.80;;;;;;;;;;5049697;28;20045;-78
2022/08/12 09:08:08;;;;;;;3.75;1.80;;;;;;;;;;5033061;28;20041;-81
2022/08/12 09:10:36;;;;;;;6.47;2.47;;;;;;;;;;5048414;28;20090;-81
2022/08/12 09:15:46;;;;;;;;;;;;;;;;;;5036740;28;20080;-83
2022/08/12 09:18:12;;;;;;;5.75;2.00;;;;;;;;;;5050115;28;19917;-82
2022/08/12 09:20:39;;;;;;;6.57;2.10;;;;;;;;;;5036027;28;20037;-82
2022/08/12 09:23:09;;;;;;;4.75;2.25;;;;;;;;;;5053828;28;20048;-84
2022/08/12 09:25:36;;;;;;;6.25;2.20;;;;;;;;;;5053590;28;20044;-81
2022/08/12 09:28:03;;;;;;;5.15;2.00;;;;;;;;;;5054859;28;20037;-82
2022/08/12 09:30:30;;;;;;;5.40;2.03;;;;;;;;;;5053489;28;20492;-82
2022/08/12 09:32:57;;;;;;;7.18;2.25;;;;;;;;;;5053387;28;20405;-81
2022/08/12 09:35:25;;;;;;;3.67;2.00;;;;;;;;;;5036894;28;20037;-80
2022/08/12 09:37:53;;;;;;;9.80;2.53;;;;;;;;;;5053110;28;20094;-82
2022/08/12 09:40:20;;;;;;;4.57;2.13;;;;;;;;;;5035263;28;20037;-82
2022/08/12 09:45:32;;;;;;;3.50;2.00;;;;;;;;;;5052699;28;20064;-82
2022/08/12 09:48:00;;;;;;;3.45;2.13;;;;;;;;;;5051310;28;20111;-83
2022/08/12 09:50:27;;;;;;;3.55;2.20;;;;;;;;;;5049322;28;20466;-83
2022/08/12 09:53:09;;;;;;;4.40;2.30;;;;;;;;;;5048702;28;20034;-79
2022/08/12 09:55:36;;;;;;;6.47;2.20;;;;;;;;;;5039695;28;20450;-81
2022/08/12 09:58:03;;;;;;;6.70;1.80;;;;;;;;;;5042901;28;20047;-80
2022/08/12 10:00:33;;;;;;;4.80;2.03;;;;;;;;;;5051181;28;20044;-80
2022/08/12 10:03:02;;;;;;;7.50;2.13;;;;;;;;;;5044012;28;20371;-80
2022/08/12 10:05:32;;;;;;;3.72;1.90;;;;;;;;;;5024869;28;20498;-79
2022/08/12 10:07:59;;;;;;;6.05;2.00;;;;;;;;;;5036408;28;20380;-79
2022/08/12 10:10:26;;;;;;;5.05;2.22;;;;;;;;;;5044089;28;20121;-79
2022/08/12 10:15:38;;;;;;;2.97;2.10;;;;;;;;;;5043090;28;20576;-79
2022/08/12 10:18:04;;;;;;;8.23;2.08;;;;;;;;;;5049962;28;20037;-79
2022/08/12 10:20:30;;;;;;;3.78;1.83;;;;;;;;;;5035998;28;20386;-80
2022/08/12 10:22:57;;;;;;;6.15;2.05;;;;;;;;;;5052276;28;20101;-80
2022/08/12 10:30:52;;;;;;;6.35;1.83;;;;;;;;;;5055772;28;20041;-79
2022/08/12 10:33:18;;;;;;;3.65;1.83;;;;;;;;;;5035229;28;20123;-79
2022/08/12 10:35:44;;;;;;;3.42;1.90;;;;;;;;;;5051658;28;20055;-77
2022/08/12 10:38:12;;;;;;;5.22;1.80;;;;;;;;;;5052282;28;20041;-79
2022/08/12 10:43:39;;;;;;;4.75;2.00;;;;;;;;;;5052300;28;20493;-77
2022/08/12 10:43:42;;;;;;;3.50;1.60;;;;;;;;;;5051742;28;20497;-79
2022/08/12 10:46:09;;;;;;;4.17;1.77;;;;;;;;;;5049441;28;20052;-80
2022/08/12 10:48:37;;;;;;;4.60;1.58;;;;;;;;;;5034670;28;20037;-80
2022/08/12 10:51:03;;;;;;;6.05;1.90;;;;;;;;;;5031953;28;20033;-80
2022/08/12 10:53:31;;;;;;;3.65;1.70;;;;;;;;;;5051995;28;20481;-80
2022/08/12 10:55:57;;;;;;;3.45;1.60;;;;;;;;;;5048305;28;20422;-79
2022/08/12 10:58:23;;;;;;;2.17;1.40;;;;;;;;;;5045139;28;20052;-80
2022/08/12 11:00:49;;;;;;;4.60;1.80;;;;;;;;;;5043706;28;20314;-79
2022/08/12 11:03:16;;;;;;;4.57;2.00;;;;;;;;;;5050908;28;20085;-80
2022/08/12 11:05:43;;;;;;;5.72;2.08;;;;;;;;;;5049320;28;20095;-80
2022/08/12 11:08:11;;;;;;;7.20;1.80;;;;;;;;;;5051177;28;20056;-80
2022/08/12 11:10:37;;;;;;;7.90;1.77;;;;;;;;;;5034768;28;20045;-80
2022/08/12 11:13:04;;;;;;;6.22;1.80;;;;;;;;;;5052020;28;20124;-80
2022/08/12 11:15:32;;;;;;;3.75;1.90;;;;;;;;;;5051847;28;20056;-80
2022/08/12 11:17:59;;;;;;;7.78;1.85;;;;;;;;;;5035257;28;20052;-80
2022/08/12 11:20:25;;;;;;;7.18;2.05;;;;;;;;;;5051717;28;20426;-80
2022/08/12 11:22:55;;;;;;;3.90;2.20;;;;;;;;;;5051554;28;20037;-80
2022/08/12 11:25:21;;;;;;;5.45;1.80;;;;;;;;;;5052667;28;20072;-80
2022/08/12 11:27:47;;;;;;;3.00;1.83;;;;;;;;;;5052357;28;20049;-80
2022/08/12 11:30:13;;;;;;;3.75;1.83;;;;;;;;;;5051394;28;20044;-80
2022/08/12 11:32:39;;;;;;;5.20;2.00;;;;;;;;;;5051145;28;20052;-80
2022/08/12 11:35:06;;;;;;;4.47;2.13;;;;;;;;;;5051567;28;20123;-80
2022/08/12 11:37:34;;;;;;;2.88;1.80;;;;;;;;;;5051564;28;20048;-80
2022/08/12 11:40:00;;;;;;;3.85;1.70;;;;;;;;;;5051081;28;20080;-80
2022/08/12 11:42:26;;;;;;;4.32;1.90;;;;;;;;;;5051393;28;20037;-80
2022/08/12 11:44:52;;;;;;;5.40;1.80;;;;;;;;;;5050043;28;20057;-80
2022/08/12 11:47:19;;;;;;;4.38;1.80;;;;;;;;;;5051114;28;20448;-80
2022/08/12 11:49:45;;;;;;;6.13;1.90;;;;;;;;;;5034198;28;20041;-80
2022/08/12 11:52:11;;;;;;;6.13;1.90;;;;;;;;;;5034591;28;20041;-80
2022/08/12 11:54:38;;;;;;;4.18;1.70;;;;;;;;;;5034413;28;20520;-80
2022/08/12 11:57:04;;;;;;;4.18;1.67;;;;;;;;;;5051000;28;20041;-80
2022/08/12 11:59:31;;;;;;;3.05;1.70;;;;;;;;;;5034468;28;20037;-80
2022/08/12 12:01:57;;;;;;;4.15;1.70;;;;;;;;;;5033992;28;20044;-80
2022/08/12 12:04:23;;;;;;;4.10;1.60;;;;;;;;;;5050830;28;20045;-80
2022/08/12 12:06:49;;;;;;;3.47;1.85;;;;;;;;;;5050745;28;20481;-80
2022/08/12 12:09:15;;;;;;;6.15;1.70;;;;;;;;;;5052030;28;20037;-80
2022/08/12 12:11:42;;;;;;;3.38;1.50;;;;;;;;;;5050758;28;20423;-80
2022/08/12 12:14:09;;;;;;;2.80;1.75;;;;;;;;;;5034804;28;20045;-80
2022/08/12 12:16:35;;;;;;;3.67;1.50;;;;;;;;;;5034356;28;20045;-80
2022/08/12 12:19:04;;;;;;;4.90;1.60;;;;;;;;;;5050433;28;20045;-80
2022/08/12 12:21:30;;;;;;;4.82;1.60;;;;;;;;;;5034298;28;20044;-80
2022/08/12 12:23:56;;;;;;;6.45;1.90;;;;;;;;;;5034062;28;20044;-80
2022/08/12 12:26:22;;;;;;;4.80;1.60;;;;;;;;;;5050726;28;20080;-80
2022/08/12 12:28:48;;;;;;;2.63;1.48;;;;;;;;;;5034106;28;20025;-80
2022/08/12 12:31:14;;;;;;;3.95;1.50;;;;;;;;;;5050654;28;20041;-80
2022/08/12 12:33:40;;;;;;;2.55;1.40;;;;;;;;;;5033748;28;20090;-79
2022/08/12 12:36:07;;;;;;;4.00;1.50;;;;;;;;;;5034311;28;20048;-80
2022/08/12 12:38:33;;;;;;;5.28;1.50;;;;;;;;;;5050986;28;20072;-80
2022/08/12 12:40:59;;;;;;;5.25;1.42;;;;;;;;;;5033526;28;20036;-80
2022/08/12 12:43:25;;;;;;;2.83;1.80;;;;;;;;;;5050683;28;20037;-79
2022/08/12 12:45:51;;;;;;;6.00;1.60;;;;;;;;;;5050307;28;20077;-79
2022/08/12 12:48:18;;;;;;;7.13;1.67;;;;;;;;;;5050824;28;20041;-79
2022/08/12 12:50:45;;;;;;;3.33;1.90;;;;;;;;;;5034110;28;20040;-80
2022/08/12 12:53:14;;;;;;;4.05;1.70;;;;;;;;;;5050720;28;20052;-79
2022/08/12 12:55:40;;;;;;;7.13;2.10;;;;;;;;;;5052658;28;20404;-79
2022/08/12 12:58:15;;;;;;;4.18;1.95;;;;;;;;;;5053857;28;20127;-80
2022/08/12 13:00:43;;;;;;;3.15;1.65;;;;;;;;;;5054655;28;20036;-80
2022/08/12 13:03:11;;;;;;;2.10;1.40;;;;;;;;;;5054602;28;20063;-79
2022/08/12 13:05:37;;;;;;;3.42;1.50;;;;;;;;;;5054544;28;20061;-79
2022/08/12 13:08:17;;;;;;;3.13;1.55;;;;;;;;;;5054392;28;20098;-79
2022/08/12 13:10:43;;;;;;;3.00;1.50;;;;;;;;;;5037632;28;20033;-80
2022/08/12 13:13:09;;;;;;;3.30;1.30;;;;;;;;;;5054194;28;20115;-80
2022/08/12 13:15:36;;;;;;;4.57;1.77;;;;;;;;;;5053960;28;20040;-80
2022/08/12 13:18:06;;;;;;;5.18;1.80;;;;;;;;;;5036999;28;20044;-80
2022/08/12 13:20:32;;;;;;;5.03;1.70;;;;;;;;;;5054435;28;20044;-80
2022/08/12 13:22:58;;;;;;;3.33;1.70;;;;;;;;;;5053984;28;20053;-80
2022/08/12 13:25:25;;;;;;;3.85;1.70;;;;;;;;;;5053774;28;20036;-79
2022/08/12 13:27:51;;;;;;;6.28;1.90;;;;;;;;;;5054703;28;20045;-79
2022/08/12 13:30:19;;;;;;;3.47;1.70;;;;;;;;;;5053918;28;20095;-79
2022/08/12 13:32:49;;;;;;;3.35;1.88;;;;;;;;;;5054277;28;20482;-80
2022/08/12 13:35:15;;;;;;;4.35;1.55;;;;;;;;;;5037392;28;20045;-79
2022/08/12 13:37:52;;;;;;;3.90;1.90;;;;;;;;;;5037313;28;20041;-79
2022/08/12 13:40:19;;;;;;;7.00;2.00;;;;;;;;;;5053689;28;20111;-79
2022/08/12 13:42:47;;;;;;;2.60;1.88;;;;;;;;;;5053924;28;20075;-79
2022/08/12 13:45:14;;;;;;;4.28;1.73;;;;;;;;;;5053716;28;20061;-80
2022/08/12 13:47:57;;;;;;;3.50;1.80;;;;;;;;;;5053585;28;20049;-79
2022/08/12 13:50:23;;;;;;;2.92;1.90;;;;;;;;;;5053917;28;20508;-79
2022/08/12 13:52:50;;;;;;;5.47;2.20;;;;;;;;;;5053035;28;20036;-80
2022/08/12 13:55:16;;;;;;;4.45;1.88;;;;;;;;;;5053787;28;20045;-79
2022/08/12 13:57:42;;;;;;;5.20;1.90;;;;;;;;;;5052953;28;20045;-79
2022/08/12 14:00:12;;;;;;;4.55;1.75;;;;;;;;;;5052992;28;20051;-80
2022/08/12 14:02:38;;;;;;;4.47;2.33;;;;;;;;;;5036246;28;20049;-80
2022/08/12 14:05:08;;;;;;;3.85;1.98;;;;;;;;;;5053192;28;20120;-80
2022/08/12 14:07:54;;;;;;;4.30;1.90;;;;;;;;;;5052225;28;20508;-80
2022/08/12 14:10:35;;;;;;;6.00;1.90;;;;;;;;;;5036670;28;20079;-80
2022/08/12 14:13:04;;;;;;;4.78;1.70;;;;;;;;;;5053725;28;20033;-80
2022/08/12 14:15:30;;;;;;;4.80;2.25;;;;;;;;;;5052893;28;20045;-80
2022/08/12 14:18:04;;;;;;;5.20;1.80;;;;;;;;;;5052302;28;20041;-80
2022/08/12 14:20:30;;;;;;;5.63;2.00;;;;;;;;;;5052677;28;20130;-80
2022/08/12 14:22:58;;;;;;;4.07;1.83;;;;;;;;;;5052426;28;20044;-80
2022/08/12 14:25:27;;;;;;;7.15;2.10;;;;;;;;;;5035971;28;20124;-80
2022/08/12 14:27:54;;;;;;;3.83;2.17;;;;;;;;;;5052482;28;20102;-80
2022/08/12 14:30:22;;;;;;;3.85;1.92;;;;;;;;;;5052510;28;20049;-80
2022/08/12 14:32:48;;;;;;;3.17;1.75;;;;;;;;;;5036224;28;20119;-80
2022/08/12 14:35:14;;;;;;;4.38;2.15;;;;;;;;;;5052063;28;20094;-80
2022/08/12 14:37:40;;;;;;;4.47;1.90;;;;;;;;;;5053730;28;20447;-80
2022/08/12 14:40:08;;;;;;;4.70;1.80;;;;;;;;;;5052191;28;20041;-80
2022/08/12 14:42:34;;;;;;;2.97;2.00;;;;;;;;;;5035683;28;20045;-80
2022/08/12 14:45:00;;;;;;;4.65;2.47;;;;;;;;;;5035347;28;20060;-80
2022/08/12 14:47:26;;;;;;;4.22;2.25;;;;;;;;;;5035425;28;20037;-80
2022/08/12 14:49:52;;;;;;;4.00;2.20;;;;;;;;;;5052314;28;20074;-80
2022/08/12 14:52:19;;;;;;;8.57;2.00;;;;;;;;;;5051745;28;20048;-80
2022/08/12 14:54:45;;;;;;;3.45;1.80;;;;;;;;;;5052380;28;20400;-80
2022/08/12 14:57:11;;;;;;;4.07;2.03;;;;;;;;;;5051990;28;20066;-80
2022/08/12 15:02:21;;;;;;;3.55;2.08;;;;;;;;;;5052071;28;20464;-80
2022/08/12 15:04:57;;;;;;;7.18;2.10;;;;;;;;;;5035410;28;20037;-80
2022/08/12 15:07:25;;;;;;;4.63;2.15;;;;;;;;;;5036189;28;20053;-80
2022/08/12 15:09:51;;;;;;;5.97;2.17;;;;;;;;;;5051916;28;20112;-80
2022/08/12 15:12:18;;;;;;;4.32;2.33;;;;;;;;;;5034896;28;20055;-80
2022/08/12 15:14:44;;;;;;;3.90;2.00;;;;;;;;;;5052777;28;20111;-80
2022/08/12 15:17:10;;;;;;;4.80;2.30;;;;;;;;;;5051464;28;20037;-80
2022/08/12 15:19:37;;;;;;;6.90;2.20;;;;;;;;;;5035026;28;20053;-80
2022/08/12 15:22:03;;;;;;;6.70;2.53;;;;;;;;;;5051249;28;20037;-80
2022/08/12 15:24:32;;;;;;;4.90;2.20;;;;;;;;;;5051757;28;20045;-80
2022/08/12 15:26:58;;;;;;;5.65;2.47;;;;;;;;;;5051476;28;20041;-80
2022/08/12 15:29:25;;;;;;;5.35;2.50;;;;;;;;;;5051250;28;20578;-80
2022/08/12 15:31:51;;;;;;;3.47;2.40;;;;;;;;;;5034769;28;20076;-80
2022/08/12 15:34:17;;;;;;;3.70;2.17;;;;;;;;;;5051292;28;20052;-80
2022/08/12 15:36:43;;;;;;;5.13;2.28;;;;;;;;;;5051296;28;20047;-80
2022/08/12 15:39:09;;;;;;;6.35;2.55;;;;;;;;;;5050977;28;20041;-80
2022/08/12 15:41:35;;;;;;;5.95;2.30;;;;;;;;;;5018290;28;20107;-80
2022/08/12 15:44:01;;;;;;;4.03;2.22;;;;;;;;;;5050928;28;20075;-79
2022/08/12 15:46:31;;;;;;;6.85;2.10;;;;;;;;;;5034734;28;20178;-80
2022/08/12 15:48:58;;;;;;;5.53;2.50;;;;;;;;;;5051321;28;20041;-80
2022/08/12 15:51:29;;;;;;;6.05;2.60;;;;;;;;;;5034160;28;20045;-80
2022/08/12 15:54:04;;;;;;;4.63;2.30;;;;;;;;;;5051065;28;20033;-80
2022/08/12 15:56:31;;;;;;;5.55;2.45;;;;;;;;;;5035917;28;20118;-80
2022/08/12 15:58:58;;;;;;;4.30;2.35;;;;;;;;;;5051291;28;20051;-80
2022/08/12 16:01:24;;;;;;;6.47;2.60;;;;;;;;;;5050681;28;20048;-79
2022/08/12 16:03:50;;;;;;;4.15;2.28;;;;;;;;;;5018037;28;20048;-79
2022/08/12 16:06:17;;;;;;;4.50;2.47;;;;;;;;;;5050490;28;20045;-80
2022/08/12 16:08:44;;;;;;;5.53;2.78;;;;;;;;;;5051001;28;20059;-80
2022/08/12 16:11:16;;;;;;;3.08;2.35;;;;;;;;;;5050494;28;20072;-79
2022/08/12 16:13:43;;;;;;;4.47;2.55;;;;;;;;;;5034526;28;20401;-80
2022/08/12 16:16:09;;;;;;;5.55;2.30;;;;;;;;;;5050319;28;20124;-80
2022/08/12 16:18:37;;;;;;;4.20;2.47;;;;;;;;;;5034423;28;20048;-79
2022/08/12 16:21:04;;;;;;;6.88;2.67;;;;;;;;;;5034536;28;20558;-80
2022/08/12 16:23:33;;;;;;;4.88;2.60;;;;;;;;;;5050104;28;20047;-80
2022/08/12 16:26:02;;;;;;;7.18;3.05;;;;;;;;;;5050821;28;20056;-80
2022/08/12 16:28:29;;;;;;;6.05;2.55;;;;;;;;;;5033890;28;20405;-79